Time;durP1;ratioP1;P1;durP2;ratioP2;P2;SDS_P1;SDS_P2;PMS_P1;PMS_P2;Temp;Humidity;BMP_temperature;BMP_pressure;BME280_temperature;BME280_humidity;BME280_pressure;Samples;Min_cycle;Max_cycle;Signal;HPM_P1;HPM_P2
2023/07/26 00:01:03;;;;;;;0.10;0.10;;;;;;;13.49;82.23;96771.94;5041789;28;20072;-73
2023/07/26 00:03:31;;;;;;;0.10;0.10;;;;;;;13.57;82.25;96768.06;5040418;28;20037;-72
2023/07/26 00:06:00;;;;;;;0.10;0.10;;;;;;;13.69;81.19;96768.88;5040221;28;20045;-70
2023/07/26 00:08:29;;;;;;;0.20;0.20;;;;;;;13.67;80.59;96768.28;5040521;28;20121;-71
2023/07/26 00:10:59;;;;;;;0.10;0.10;;;;;;;13.72;80.83;96778.31;5042540;28;20045;-70
2023/07/26 00:13:27;;;;;;;0.10;0.10;;;;;;;13.82;80.40;96773.16;5040660;28;20136;-70
2023/07/26 00:15:54;;;;;;;0.10;0.10;;;;;;;13.82;80.29;96776.66;5041077;28;20151;-70
2023/07/26 00:18:22;;;;;;;0.10;0.10;;;;;;;14.02;79.54;96768.22;5040046;28;20046;-71
2023/07/26 00:20:50;;;;;;;0.10;0.10;;;;;;;13.87;79.45;96776.78;5041486;28;20064;-71
2023/07/26 00:23:17;;;;;;;0.10;0.10;;;;;;;13.82;80.29;96778.53;5041054;28;20159;-71
2023/07/26 00:25:46;;;;;;;0.10;0.10;;;;;;;13.60;80.28;96781.81;5042111;28;20121;-70
2023/07/26 00:28:14;;;;;;;0.10;0.10;;;;;;;13.31;81.76;96776.56;5042810;28;20053;-72
2023/07/26 00:30:43;;;;;;;0.10;0.10;;;;;;;13.61;80.98;96782.63;5045540;28;20037;-72
2023/07/26 00:33:11;;;;;;;0.05;0.05;;;;;;;13.65;81.07;96786.47;5026377;28;20061;-72
2023/07/26 00:35:40;;;;;;;0.10;0.10;;;;;;;13.59;80.63;96787.44;5026193;28;20041;-72
2023/07/26 00:38:08;;;;;;;0.10;0.10;;;;;;;13.53;81.37;96791.84;5041909;28;20073;-72
2023/07/26 00:40:36;;;;;;;0.10;0.10;;;;;;;13.45;81.12;96792.19;5025732;28;20045;-72
2023/07/26 00:43:07;;;;;;;0.20;0.20;;;;;;;13.50;81.28;96800.34;5025779;28;20064;-72
2023/07/26 00:45:36;;;;;;;0.13;0.13;;;;;;;13.65;80.97;96799.06;5044911;28;20048;-72
2023/07/26 00:48:05;;;;;;;0.10;0.10;;;;;;;13.74;80.34;96801.16;5024315;28;20065;-72
2023/07/26 00:50:33;;;;;;;0.10;0.10;;;;;;;13.77;80.55;96808.75;5042323;28;20059;-73
2023/07/26 00:53:02;;;;;;;0.10;0.10;;;;;;;13.79;80.60;96809.34;5043368;28;20060;-72
2023/07/26 00:55:30;;;;;;;0.10;0.10;;;;;;;13.76;80.09;96812.47;5042814;28;20034;-73
2023/07/26 00:57:58;;;;;;;0.13;0.13;;;;;;;13.77;80.41;96818.66;5026231;28;20426;-73
2023/07/26 01:00:27;;;;;;;0.10;0.10;;;;;;;13.82;80.83;96816.91;5026753;28;20053;-73
2023/07/26 01:02:55;;;;;;;0.10;0.10;;;;;;;13.89;80.57;96819.47;5041766;28;20037;-71
2023/07/26 01:05:25;;;;;;;0.15;0.15;;;;;;;13.81;80.77;96826.00;5043148;28;20112;-72
2023/07/26 01:08:02;;;;;;;0.10;0.10;;;;;;;13.46;81.24;96836.72;5043417;28;20056;-74
2023/07/26 01:10:36;;;;;;;0.10;0.10;;;;;;;13.47;80.72;96835.69;5026099;28;20041;-74
2023/07/26 01:13:10;;;;;;;0.10;0.10;;;;;;;13.62;80.88;96835.22;5040603;28;20583;-74
2023/07/26 01:15:42;;;;;;;0.05;0.05;;;;;;;13.69;80.73;96835.94;5025026;28;20694;-75
2023/07/26 01:18:12;;;;;;;0.10;0.10;;;;;;;13.73;80.15;96822.84;5042974;28;20041;-74
2023/07/26 01:20:41;;;;;;;0.10;0.10;;;;;;;13.79;79.68;96846.06;5048147;28;20049;-74
2023/07/26 01:23:10;;;;;;;0.20;0.20;;;;;;;13.84;79.77;96836.25;5026157;28;20095;-71
2023/07/26 01:25:38;;;;;;;0.10;0.10;;;;;;;13.62;78.82;96845.13;5026034;28;20075;-72
2023/07/26 01:28:06;;;;;;;0.10;0.10;;;;;;;13.31;80.52;96841.69;5042362;28;20561;-73
2023/07/26 01:30:34;;;;;;;0.10;0.10;;;;;;;13.39;80.18;96838.69;5026502;28;20139;-74
2023/07/26 01:33:04;;;;;;;0.10;0.10;;;;;;;13.59;79.82;96849.91;5042949;28;20045;-74
2023/07/26 01:35:32;;;;;;;0.10;0.10;;;;;;;13.59;79.37;96847.25;5026750;28;20052;-73
2023/07/26 01:38:01;;;;;;;0.10;0.10;;;;;;;13.43;80.11;96849.75;5042473;28;20379;-73
2023/07/26 01:40:30;;;;;;;0.10;0.10;;;;;;;13.53;80.06;96850.00;5026725;28;20052;-73
2023/07/26 01:42:58;;;;;;;0.10;0.10;;;;;;;13.51;80.16;96858.28;5024813;28;20506;-74
2023/07/26 01:45:28;;;;;;;0.10;0.10;;;;;;;13.42;80.25;96858.84;5042567;28;20056;-74
2023/07/26 01:47:56;;;;;;;0.13;0.13;;;;;;;13.29;80.68;96862.53;5042229;28;20645;-73
2023/07/26 01:50:23;;;;;;;0.40;0.40;;;;;;;13.38;80.61;96858.50;5026738;28;20305;-74
2023/07/26 01:52:51;;;;;;;0.13;0.13;;;;;;;13.49;80.15;96860.41;5043706;28;20049;-74
2023/07/26 01:55:19;;;;;;;0.20;0.20;;;;;;;13.37;80.60;96867.59;5045355;28;20037;-74
2023/07/26 01:57:48;;;;;;;0.10;0.10;;;;;;;13.45;80.73;96869.13;5043574;28;20604;-74
2023/07/26 02:00:17;;;;;;;0.40;0.40;;;;;;;13.73;79.50;96863.09;5023120;28;21721;-74
2023/07/26 02:02:45;;;;;;;0.10;0.10;;;;;;;13.64;80.23;96869.84;5042889;28;20037;-74
2023/07/26 02:05:12;;;;;;;0.22;0.22;;;;;;;13.66;80.69;96871.25;5024769;28;20462;-74
2023/07/26 02:07:40;;;;;;;0.10;0.10;;;;;;;13.66;81.49;96875.78;5025126;28;20045;-73
2023/07/26 02:10:08;;;;;;;0.20;0.20;;;;;;;13.22;82.68;96883.28;5024468;28;20041;-72
2023/07/26 02:12:36;;;;;;;0.20;0.20;;;;;;;13.40;82.25;96880.53;5041733;28;20092;-72
2023/07/26 02:15:09;;;;;;;0.60;0.60;;;;;;;13.54;81.10;96879.28;5041591;28;20468;-73
2023/07/26 02:17:37;;;;;;;0.10;0.10;;;;;;;13.59;81.37;96883.97;5024964;28;20045;-73
2023/07/26 02:20:06;;;;;;;0.17;0.17;;;;;;;13.59;81.03;96883.97;5042378;28;20390;-73
2023/07/26 02:22:34;;;;;;;0.10;0.10;;;;;;;13.69;79.77;96894.94;5040996;28;20065;-73
2023/07/26 02:25:01;;;;;;;0.15;0.15;;;;;;;13.52;80.94;96891.28;5025033;28;20136;-74
2023/07/26 02:27:29;;;;;;;0.10;0.10;;;;;;;13.22;81.01;96900.19;5023813;28;20076;-73
2023/07/26 02:29:58;;;;;;;0.13;0.13;;;;;;;13.09;82.52;96899.50;5038705;28;20052;-72
2023/07/26 02:32:29;;;;;;;0.13;0.13;;;;;;;13.15;82.43;96902.16;5023644;28;20140;-72
2023/07/26 02:34:57;;;;;;;0.20;0.20;;;;;;;13.23;82.34;96903.69;5024283;28;20067;-71
2023/07/26 02:37:24;;;;;;;0.20;0.20;;;;;;;13.04;82.74;96902.06;5024685;28;20732;-73
2023/07/26 02:39:52;;;;;;;0.10;0.10;;;;;;;13.09;83.32;96910.22;5040629;28;20048;-73
2023/07/26 02:42:20;;;;;;;0.10;0.10;;;;;;;13.12;82.73;96909.78;5040704;28;20034;-73
2023/07/26 02:44:48;;;;;;;0.17;0.17;;;;;;;13.16;83.00;96916.34;5023369;28;20103;-72
2023/07/26 02:47:16;;;;;;;0.10;0.10;;;;;;;13.31;81.83;96923.97;5040950;28;20037;-73
2023/07/26 02:49:45;;;;;;;0.20;0.20;;;;;;;13.31;82.21;96927.47;5040636;28;20558;-72
2023/07/26 02:52:13;;;;;;;0.10;0.10;;;;;;;13.47;81.27;96929.50;5024564;28;20049;-73
2023/07/26 02:54:41;;;;;;;0.10;0.10;;;;;;;13.27;81.65;96929.00;5022731;28;20049;-73
2023/07/26 02:57:08;;;;;;;0.10;0.10;;;;;;;13.38;81.46;96925.53;5022847;28;20874;-73
2023/07/26 02:59:36;;;;;;;0.10;0.10;;;;;;;13.24;81.81;96921.38;5023386;28;20051;-73
2023/07/26 03:02:04;;;;;;;0.03;0.03;;;;;;;13.28;81.44;96930.63;5023117;28;20190;-73
2023/07/26 03:04:32;;;;;;;0.20;0.20;;;;;;;13.14;81.87;96931.84;5021871;28;20060;-73
2023/07/26 03:07:01;;;;;;;0.50;0.50;;;;;;;13.24;81.83;96937.47;5041886;28;20418;-74
2023/07/26 03:09:29;;;;;;;0.00;0.00;;;;;;;13.40;81.51;96936.00;5039920;28;20420;-75
2023/07/26 03:11:57;;;;;;;0.15;0.15;;;;;;;13.24;81.76;96942.84;5040383;28;20056;-75
2023/07/26 03:14:24;;;;;;;0.10;0.10;;;;;;;13.30;81.96;96946.44;5040375;28;20056;-74
2023/07/26 03:16:52;;;;;;;0.20;0.20;;;;;;;13.32;81.20;96950.53;5048647;28;20037;-73
2023/07/26 03:19:21;;;;;;;0.20;0.20;;;;;;;13.17;81.95;96937.56;5048397;28;20053;-75
2023/07/26 03:21:49;;;;;;;0.10;0.10;;;;;;;13.12;81.85;96949.97;5042723;28;20088;-73
2023/07/26 03:24:18;;;;;;;0.20;0.20;;;;;;;13.14;81.55;96948.75;5040859;28;20140;-73
2023/07/26 03:26:46;;;;;;;0.10;0.10;;;;;;;13.29;81.30;96945.63;5040935;28;20068;-74
2023/07/26 03:29:14;;;;;;;0.10;0.10;;;;;;;13.19;80.88;96950.72;5021947;28;20047;-75
2023/07/26 03:31:41;;;;;;;0.10;0.10;;;;;;;13.01;81.09;96954.22;5040779;28;20042;-74
2023/07/26 03:34:09;;;;;;;0.10;0.10;;;;;;;12.95;82.12;96943.59;5040362;28;20132;-73
2023/07/26 03:36:37;;;;;;;0.20;0.20;;;;;;;13.02;81.07;96942.47;5040977;28;20037;-72
2023/07/26 03:39:04;;;;;;;0.10;0.10;;;;;;;13.01;81.52;96937.34;5039645;28;20064;-72
2023/07/26 03:41:33;;;;;;;0.20;0.20;;;;;;;13.09;81.87;96951.22;5023364;28;20525;-72
2023/07/26 03:44:01;;;;;;;0.10;0.10;;;;;;;13.03;80.88;96946.78;5042201;28;20057;-72
2023/07/26 03:46:29;;;;;;;0.05;0.05;;;;;;;13.21;80.90;96956.69;5040295;28;20068;-72
2023/07/26 03:48:57;;;;;;;0.20;0.20;;;;;;;13.19;81.06;96956.06;5038164;28;20044;-73
2023/07/26 03:51:24;;;;;;;0.20;0.10;;;;;;;13.08;81.30;96963.00;5038721;28;20051;-74
2023/07/26 03:53:53;;;;;;;0.40;0.40;;;;;;;13.15;81.19;96969.13;5023396;28;20435;-74
2023/07/26 03:56:21;;;;;;;0.10;0.10;;;;;;;13.30;80.97;96973.25;5040585;28;20147;-74
2023/07/26 03:58:50;;;;;;;0.40;0.40;;;;;;;13.33;79.88;96972.81;5036127;28;20418;-74
2023/07/26 04:01:17;;;;;;;0.10;0.10;;;;;;;13.07;80.29;96973.97;5042579;28;20544;-73
2023/07/26 04:03:45;;;;;;;0.10;0.10;;;;;;;13.03;81.23;96980.81;5042468;28;20056;-74
2023/07/26 04:06:13;;;;;;;0.10;0.10;;;;;;;13.07;81.04;96977.47;5043769;28;20029;-74
2023/07/26 04:08:41;;;;;;;0.10;0.10;;;;;;;12.99;81.42;96975.06;5043545;28;20112;-74
2023/07/26 04:11:09;;;;;;;0.10;0.10;;;;;;;13.02;81.90;96981.84;5043145;28;20038;-73
2023/07/26 04:13:36;;;;;;;0.10;0.10;;;;;;;13.15;81.54;96982.53;5044114;28;20041;-75
2023/07/26 04:16:14;;;;;;;0.10;0.10;;;;;;;13.36;80.97;96994.63;5043277;28;20041;-75
2023/07/26 04:18:42;;;;;;;0.15;0.15;;;;;;;13.43;80.79;96992.66;5042035;28;20052;-74
2023/07/26 04:21:12;;;;;;;0.10;0.10;;;;;;;13.17;80.58;96991.16;5044209;28;20037;-74
2023/07/26 04:23:40;;;;;;;0.10;0.10;;;;;;;13.24;80.92;96991.06;5043565;28;20037;-72
2023/07/26 04:26:08;;;;;;;0.10;0.10;;;;;;;13.37;80.70;97001.63;5042349;28;20128;-74
2023/07/26 04:28:35;;;;;;;0.10;0.10;;;;;;;13.55;80.21;97001.56;5042875;28;20042;-74
2023/07/26 04:31:03;;;;;;;0.10;0.10;;;;;;;13.42;80.28;97008.97;5043310;28;20047;-75
2023/07/26 04:33:32;;;;;;;0.10;0.10;;;;;;;13.26;80.80;97015.78;5044829;28;20045;-74
2023/07/26 04:36:00;;;;;;;0.10;0.10;;;;;;;13.22;81.12;97011.91;5045441;28;20076;-75
2023/07/26 04:38:28;;;;;;;0.10;0.10;;;;;;;13.33;80.76;97013.84;5043288;28;20052;-75
2023/07/26 04:40:56;;;;;;;0.10;0.10;;;;;;;13.21;80.62;97010.28;5043367;28;20041;-74
2023/07/26 04:43:23;;;;;;;0.10;0.10;;;;;;;13.07;80.53;97009.63;5043350;28;20068;-75
2023/07/26 04:45:52;;;;;;;0.10;0.10;;;;;;;12.85;81.51;97021.81;5043148;28;20055;-74
2023/07/26 04:48:21;;;;;;;0.10;0.10;;;;;;;13.08;81.07;97027.28;5043204;28;20049;-74
2023/07/26 04:50:50;;;;;;;0.13;0.13;;;;;;;12.91;80.83;97023.59;5041952;28;20045;-74
2023/07/26 04:53:18;;;;;;;0.20;0.20;;;;;;;12.82;81.36;97023.06;5046076;28;20041;-73
2023/07/26 04:55:47;;;;;;;0.10;0.10;;;;;;;12.96;81.18;97025.63;5043261;28;20045;-73
2023/07/26 04:58:15;;;;;;;0.10;0.10;;;;;;;13.07;80.51;97027.53;5041284;28;20587;-74
2023/07/26 05:00:43;;;;;;;0.10;0.10;;;;;;;12.95;81.06;97032.00;5042502;28;20741;-74
2023/07/26 05:03:11;;;;;;;0.13;0.13;;;;;;;13.03;80.19;97026.34;5042561;28;20041;-75
2023/07/26 05:05:39;;;;;;;0.10;0.10;;;;;;;13.18;78.78;97037.53;5042855;28;20395;-74
2023/07/26 05:08:09;;;;;;;0.10;0.10;;;;;;;13.09;80.26;97036.16;5042591;28;20045;-75
2023/07/26 05:10:36;;;;;;;0.20;0.20;;;;;;;13.01;80.22;97039.13;5043555;28;20052;-74
2023/07/26 05:13:04;;;;;;;0.20;0.20;;;;;;;13.02;79.96;97040.78;5042067;28;20119;-74
2023/07/26 05:15:32;;;;;;;0.20;0.20;;;;;;;12.99;79.90;97042.03;5042503;28;20046;-75
2023/07/26 05:17:59;;;;;;;0.10;0.10;;;;;;;13.01;80.17;97039.13;5041099;28;20152;-74
2023/07/26 05:20:27;;;;;;;0.63;0.63;;;;;;;13.04;79.72;97047.56;5038505;28;20501;-75
2023/07/26 05:22:55;;;;;;;0.20;0.20;;;;;;;12.91;80.07;97053.06;5034350;28;20049;-74
2023/07/26 05:25:24;;;;;;;0.10;0.10;;;;;;;12.99;80.27;97058.09;5047676;28;20048;-74
2023/07/26 05:27:53;;;;;;;0.10;0.10;;;;;;;13.12;79.29;97059.84;5049114;28;20126;-74
2023/07/26 05:30:21;;;;;;;0.10;0.10;;;;;;;13.18;79.38;97059.78;5051145;28;20036;-74
2023/07/26 05:32:49;;;;;;;0.20;0.20;;;;;;;12.92;80.48;97062.72;5047291;28;20042;-74
2023/07/26 05:35:17;;;;;;;0.20;0.20;;;;;;;13.08;79.91;97064.00;5051639;28;20145;-73
2023/07/26 05:37:44;;;;;;;0.10;0.10;;;;;;;12.96;80.21;97065.78;5047279;28;20041;-74
2023/07/26 05:40:12;;;;;;;0.13;0.13;;;;;;;13.13;79.26;97061.47;5048592;28;20045;-74
2023/07/26 05:42:41;;;;;;;0.10;0.10;;;;;;;13.22;79.18;97065.50;5047938;28;20043;-74
2023/07/26 05:45:10;;;;;;;0.20;0.20;;;;;;;13.22;78.70;97062.84;5051374;28;20041;-74
2023/07/26 05:47:38;;;;;;;0.10;0.10;;;;;;;13.29;78.57;97073.50;5045724;28;20064;-73
2023/07/26 05:50:07;;;;;;;0.20;0.20;;;;;;;13.38;78.60;97069.47;5050291;28;20083;-74
2023/07/26 05:52:34;;;;;;;0.10;0.10;;;;;;;13.41;78.18;97071.66;5045065;28;20065;-74
2023/07/26 05:55:02;;;;;;;0.20;0.20;;;;;;;13.45;77.10;97073.69;5050620;28;20055;-74
2023/07/26 05:57:30;;;;;;;0.20;0.20;;;;;;;13.28;78.46;97072.69;5043069;28;20038;-74
2023/07/26 05:59:59;;;;;;;0.10;0.10;;;;;;;13.41;77.95;97069.00;5048388;28;20052;-74
2023/07/26 06:02:27;;;;;;;0.15;0.15;;;;;;;13.45;78.69;97075.56;5044829;28;20044;-74
2023/07/26 06:04:54;;;;;;;0.22;0.22;;;;;;;13.66;77.12;97076.94;5046151;28;20133;-74
2023/07/26 06:07:22;;;;;;;0.10;0.10;;;;;;;13.66;76.37;97079.63;5051096;28;20037;-73
2023/07/26 06:09:49;;;;;;;0.10;0.10;;;;;;;13.59;76.75;97083.22;5046900;28;20063;-73
2023/07/26 06:12:17;;;;;;;0.10;0.10;;;;;;;13.73;76.46;97085.69;5050089;28;20045;-73
2023/07/26 06:14:45;;;;;;;0.20;0.20;;;;;;;13.66;76.37;97085.78;5046480;28;20053;-74
2023/07/26 06:17:14;;;;;;;0.03;0.03;;;;;;;13.53;77.00;97089.47;5044206;28;20080;-74
2023/07/26 06:19:41;;;;;;;0.20;0.20;;;;;;;13.86;76.08;97083.66;5032592;28;20053;-74
2023/07/26 06:22:12;;;;;;;0.10;0.10;;;;;;;13.81;75.61;97086.19;5048014;28;20041;-74
2023/07/26 06:24:39;;;;;;;0.10;0.10;;;;;;;13.96;75.39;97086.63;5050192;28;20481;-74
2023/07/26 06:27:07;;;;;;;0.13;0.13;;;;;;;13.86;75.74;97088.19;5046805;28;20486;-74
2023/07/26 06:29:36;;;;;;;0.10;0.10;;;;;;;13.76;75.03;97090.63;5049155;28;20055;-73
2023/07/26 06:32:05;;;;;;;0.20;0.20;;;;;;;13.74;74.84;97092.69;5040741;28;20047;-74
2023/07/26 06:34:34;;;;;;;0.10;0.10;;;;;;;13.81;74.48;97096.09;5049634;28;20123;-74
2023/07/26 06:37:02;;;;;;;0.10;0.10;;;;;;;13.69;75.44;97097.94;5048320;28;20106;-74
2023/07/26 06:39:30;;;;;;;0.10;0.10;;;;;;;13.78;75.29;97096.56;5046635;28;20045;-73
2023/07/26 06:41:57;;;;;;;0.15;0.15;;;;;;;13.89;76.04;97096.63;5047696;28;20076;-73
2023/07/26 06:44:25;;;;;;;0.10;0.10;;;;;;;14.07;74.81;97093.06;5049762;28;20516;-73
2023/07/26 06:46:53;;;;;;;0.10;0.10;;;;;;;14.09;73.89;97090.16;5050214;28;20041;-74
2023/07/26 06:49:20;;;;;;;0.10;0.10;;;;;;;14.12;73.31;97105.81;5050138;28;20044;-74
2023/07/26 06:51:52;;;;;;;0.10;0.10;;;;;;;14.08;73.84;97099.25;5050535;28;20048;-74
2023/07/26 06:54:19;;;;;;;0.10;0.10;;;;;;;14.15;72.92;97110.69;5045523;28;20033;-73
2023/07/26 06:56:48;;;;;;;0.13;0.13;;;;;;;14.10;72.22;97102.53;5050997;28;20423;-74
2023/07/26 06:59:16;;;;;;;0.10;0.10;;;;;;;14.23;72.74;97103.13;5047930;28;20116;-74
2023/07/26 07:01:44;;;;;;;0.10;0.10;;;;;;;14.38;72.29;97104.56;5051112;28;20069;-72
2023/07/26 07:04:13;;;;;;;0.10;0.10;;;;;;;14.49;71.39;97099.25;5052400;28;20045;-70
2023/07/26 07:06:42;;;;;;;0.10;0.10;;;;;;;14.69;70.86;97107.78;5046966;28;20044;-71
2023/07/26 07:09:12;;;;;;;0.13;0.13;;;;;;;14.76;69.89;97102.31;5047978;28;20037;-71
2023/07/26 07:11:39;;;;;;;0.10;0.10;;;;;;;14.87;69.00;97101.50;5044322;28;20057;-73
2023/07/26 07:14:07;;;;;;;0.10;0.10;;;;;;;15.05;68.73;97103.25;5049159;28;20041;-71
2023/07/26 07:16:37;;;;;;;0.10;0.10;;;;;;;15.03;67.87;97114.25;5047638;28;20098;-73
2023/07/26 07:19:05;;;;;;;0.10;0.10;;;;;;;14.90;69.34;97103.72;5048567;28;20132;-71
2023/07/26 07:21:33;;;;;;;0.10;0.10;;;;;;;14.92;69.17;97114.25;5042050;28;20096;-71
2023/07/26 07:24:01;;;;;;;0.10;0.10;;;;;;;15.03;67.70;97116.94;5049429;28;20037;-71
2023/07/26 07:26:30;;;;;;;0.10;0.10;;;;;;;14.91;66.80;97110.72;5046211;28;20076;-71
2023/07/26 07:28:58;;;;;;;0.13;0.13;;;;;;;15.00;65.92;97108.50;5049342;28;20068;-72
2023/07/26 07:31:26;;;;;;;0.10;0.10;;;;;;;15.09;64.86;97104.41;5046223;28;20045;-71
2023/07/26 07:33:53;;;;;;;0.08;0.08;;;;;;;15.22;64.91;97112.22;5048727;28;20049;-71
2023/07/26 07:36:21;;;;;;;0.10;0.10;;;;;;;15.38;63.64;97110.66;5049637;28;20037;-71
2023/07/26 07:38:49;;;;;;;0.10;0.10;;;;;;;15.23;62.57;97110.34;5034335;28;20051;-72
2023/07/26 07:41:16;;;;;;;0.10;0.10;;;;;;;15.47;63.33;97105.75;5046788;28;20033;-73
2023/07/26 07:43:45;;;;;;;0.10;0.10;;;;;;;15.56;62.02;97115.94;5052155;28;20502;-72
2023/07/26 07:46:13;;;;;;;0.10;0.10;;;;;;;15.64;62.23;97115.56;5054998;28;20120;-72
2023/07/26 07:48:41;;;;;;;0.10;0.10;;;;;;;15.53;62.81;97115.56;5050395;28;20037;-74
2023/07/26 07:51:08;;;;;;;0.03;0.03;;;;;;;15.72;61.37;97119.75;5053316;28;20041;-72
2023/07/26 07:53:36;;;;;;;0.10;0.10;;;;;;;15.74;61.38;97117.63;5049794;28;20041;-71
2023/07/26 07:56:04;;;;;;;0.20;0.20;;;;;;;15.98;61.49;97115.69;5052331;28;20156;-71
2023/07/26 07:58:32;;;;;;;0.15;0.15;;;;;;;16.18;59.85;97118.75;5048834;28;20037;-71
2023/07/26 08:01:01;;;;;;;0.13;0.13;;;;;;;16.07;60.83;97120.44;5050830;28;20052;-72
2023/07/26 08:03:29;;;;;;;0.10;0.10;;;;;;;15.95;61.08;97116.97;5054184;28;20076;-71
2023/07/26 08:05:57;;;;;;;0.10;0.10;;;;;;;15.79;60.54;97120.41;5048664;28;20817;-71
2023/07/26 08:08:24;;;;;;;0.10;0.10;;;;;;;15.88;59.22;97118.19;5052788;28;20120;-71
2023/07/26 08:10:52;;;;;;;0.10;0.10;;;;;;;15.90;58.74;97118.75;5048608;28;20047;-72
2023/07/26 08:13:20;;;;;;;0.10;0.10;;;;;;;15.95;57.39;97126.94;5053245;28;20064;-72
2023/07/26 08:15:48;;;;;;;0.20;0.20;;;;;;;15.88;58.97;97115.50;5048049;28;20044;-72
2023/07/26 08:18:17;;;;;;;0.10;0.10;;;;;;;16.09;57.47;97123.69;5050871;28;20402;-73
2023/07/26 08:20:44;;;;;;;0.10;0.10;;;;;;;16.06;57.92;97116.13;5053634;28;20041;-72
2023/07/26 08:23:12;;;;;;;0.05;0.05;;;;;;;16.11;59.04;97126.16;5048714;28;20116;-71
2023/07/26 08:25:40;;;;;;;0.10;0.10;;;;;;;16.31;56.41;97123.81;5054230;28;20103;-71
2023/07/26 08:28:08;;;;;;;0.10;0.10;;;;;;;16.06;57.79;97115.28;5046890;28;20119;-72
2023/07/26 08:30:36;;;;;;;0.10;0.10;;;;;;;16.01;54.88;97123.25;5054187;28;20047;-71
2023/07/26 08:33:04;;;;;;;0.10;0.10;;;;;;;16.03;55.46;97119.28;5052491;28;20041;-73
2023/07/26 08:35:33;;;;;;;0.10;0.10;;;;;;;16.39;55.82;97115.38;5049063;28;20050;-72
2023/07/26 08:38:01;;;;;;;0.10;0.10;;;;;;;16.57;54.54;97124.25;5054193;28;20064;-72
2023/07/26 08:40:28;;;;;;;0.10;0.10;;;;;;;16.26;54.53;97114.84;5048421;28;20044;-72
2023/07/26 08:42:57;;;;;;;0.00;0.00;;;;;;;16.35;54.07;97116.06;5050658;28;20049;-73
2023/07/26 08:45:26;;;;;;;0.10;0.10;;;;;;;16.39;53.24;97125.31;5053389;28;20110;-72
2023/07/26 08:47:55;;;;;;;0.10;0.10;;;;;;;16.39;53.53;97126.13;5048282;28;20072;-72
2023/07/26 08:50:23;;;;;;;0.10;0.10;;;;;;;16.32;55.61;97125.44;5051974;28;20045;-72
2023/07/26 08:52:52;;;;;;;0.10;0.10;;;;;;;16.41;54.77;97124.00;5048346;28;20049;-72
2023/07/26 08:55:20;;;;;;;0.10;0.10;;;;;;;16.10;56.55;97127.19;5051373;28;20076;-72
2023/07/26 08:57:47;;;;;;;0.00;0.00;;;;;;;15.99;56.49;97131.56;5053216;28;20047;-71
2023/07/26 09:00:15;;;;;;;0.20;0.20;;;;;;;15.84;55.01;97131.28;5050434;28;20043;-72
2023/07/26 09:02:46;;;;;;;0.10;0.10;;;;;;;15.84;55.22;97125.09;5052694;28;20052;-72
2023/07/26 09:05:13;;;;;;;0.10;0.10;;;;;;;16.03;54.99;97121.97;5045813;28;20037;-71
2023/07/26 09:07:41;;;;;;;0.20;0.20;;;;;;;16.28;54.35;97120.81;5051665;28;20051;-72
2023/07/26 09:10:10;;;;;;;0.10;0.10;;;;;;;16.31;54.37;97125.69;5048308;28;20059;-72
2023/07/26 09:12:38;;;;;;;0.10;0.10;;;;;;;16.54;54.81;97125.56;5051018;28;20048;-71
2023/07/26 09:15:07;;;;;;;0.10;0.10;;;;;;;16.28;54.08;97126.19;5044610;28;20056;-72
2023/07/26 09:17:37;;;;;;;0.10;0.10;;;;;;;16.03;51.84;97127.34;5048389;28;20036;-71
2023/07/26 09:20:07;;;;;;;0.10;0.10;;;;;;;16.30;51.58;97127.56;5052212;28;20036;-71
2023/07/26 09:22:35;;;;;;;0.10;0.10;;;;;;;16.61;50.95;97120.03;5048884;28;20517;-71
2023/07/26 09:25:02;;;;;;;0.10;0.10;;;;;;;16.86;51.13;97126.66;5051895;28;20116;-71
2023/07/26 09:27:31;;;;;;;0.10;0.10;;;;;;;16.75;50.88;97124.03;5048700;28;20041;-71
2023/07/26 09:29:59;;;;;;;0.10;0.10;;;;;;;16.67;51.26;97127.16;5050480;28;20044;-71
2023/07/26 09:32:28;;;;;;;0.10;0.10;;;;;;;16.78;51.61;97126.25;5051580;28;20555;-72
2023/07/26 09:34:59;;;;;;;0.10;0.10;;;;;;;17.05;51.72;97112.91;5051303;28;20124;-71
2023/07/26 09:37:27;;;;;;;0.10;0.10;;;;;;;17.16;50.57;97128.19;5048838;28;20552;-72
2023/07/26 09:39:55;;;;;;;0.10;0.10;;;;;;;17.11;51.16;97131.63;5051103;28;20478;-72
2023/07/26 09:42:23;;;;;;;0.10;0.10;;;;;;;17.11;50.50;97126.25;5045860;28;20046;-73
2023/07/26 09:44:58;;;;;;;0.10;0.10;;;;;;;16.99;50.92;97117.44;5052554;28;20049;-70
2023/07/26 09:47:36;;;;;;;0.35;0.35;;;;;;;17.15;49.91;97111.19;5049929;28;20042;-73
2023/07/26 09:50:07;;;;;;;0.10;0.10;;;;;;;17.04;50.78;97114.78;5044171;28;20120;-73
2023/07/26 09:52:39;;;;;;;0.00;0.00;;;;;;;16.80;51.01;97105.28;5049613;28;20042;-72
2023/07/26 09:55:08;;;;;;;0.10;0.10;;;;;;;16.88;51.54;97119.16;5051694;28;20451;-71
2023/07/26 09:57:38;;;;;;;0.10;0.10;;;;;;;16.95;51.00;97112.75;5048721;28;20092;-73
2023/07/26 10:00:11;;;;;;;0.15;0.15;;;;;;;16.67;50.51;97124.47;5050013;28;20098;-70
2023/07/26 10:02:39;;;;;;;0.10;0.10;;;;;;;16.48;51.58;97116.59;5053765;28;20091;-72
2023/07/26 10:05:08;;;;;;;0.10;0.10;;;;;;;16.73;51.43;97112.69;5050146;28;20128;-71
2023/07/26 10:07:36;;;;;;;0.10;0.10;;;;;;;16.95;50.45;97126.25;5053413;28;20037;-71
2023/07/26 10:10:06;;;;;;;0.10;0.10;;;;;;;16.86;54.74;97117.75;5047591;28;20064;-71
2023/07/26 10:12:34;;;;;;;0.10;0.10;;;;;;;16.81;55.48;97115.00;5055685;28;20087;-71
2023/07/26 10:15:04;;;;;;;0.10;0.10;;;;;;;16.84;55.67;97119.88;5049284;28;20041;-71
2023/07/26 10:17:33;;;;;;;0.10;0.10;;;;;;;17.04;55.63;97119.38;5051497;28;20052;-71
2023/07/26 10:20:02;;;;;;;0.20;0.20;;;;;;;16.80;55.48;97113.38;5052043;28;20098;-70
2023/07/26 10:22:30;;;;;;;0.10;0.10;;;;;;;16.89;55.44;97119.97;5048340;28;20043;-70
2023/07/26 10:24:59;;;;;;;0.20;0.20;;;;;;;16.92;55.26;97115.97;5050113;28;20048;-70
2023/07/26 10:27:27;;;;;;;0.10;0.10;;;;;;;16.99;50.62;97103.94;5047065;28;20044;-70
2023/07/26 10:29:54;;;;;;;0.10;0.10;;;;;;;16.91;49.28;97103.56;5048561;28;20483;-70
2023/07/26 10:32:23;;;;;;;0.10;0.10;;;;;;;17.01;49.11;97107.22;5050231;28;20124;-71
2023/07/26 10:34:56;;;;;;;0.03;0.03;;;;;;;16.97;49.33;97108.75;5050877;28;20036;-70
2023/07/26 10:37:32;;;;;;;0.10;0.10;;;;;;;17.29;48.82;97113.53;5046639;28;20119;-70
2023/07/26 10:40:00;;;;;;;0.10;0.10;;;;;;;17.23;47.74;97107.25;5049339;28;20067;-71
2023/07/26 10:42:29;;;;;;;0.10;0.10;;;;;;;16.98;48.29;97112.28;5045340;28;20585;-70
2023/07/26 10:44:59;;;;;;;0.03;0.03;;;;;;;17.38;47.77;97114.72;5050683;28;20065;-70
2023/07/26 10:47:27;;;;;;;0.20;0.20;;;;;;;17.46;47.86;97112.41;5047805;28;20456;-70
2023/07/26 10:50:06;;;;;;;0.10;0.10;;;;;;;17.58;46.76;97112.28;5049624;28;20041;-72
2023/07/26 10:52:35;;;;;;;0.15;0.15;;;;;;;17.56;46.60;97114.41;5046802;28;20071;-70
2023/07/26 10:55:20;;;;;;;0.03;0.03;;;;;;;17.46;46.24;97111.59;5054637;28;20458;-70
2023/07/26 10:57:48;;;;;;;;;;;;;;;17.44;45.98;97102.94;5048627;28;20120;-70
2023/07/26 11:00:22;;;;;;;0.10;0.10;;;;;;;17.61;46.05;97101.81;5049165;28;20373;-71
2023/07/26 11:02:51;;;;;;;0.00;0.00;;;;;;;17.65;45.99;97104.84;5050200;28;20586;-71
2023/07/26 11:05:21;;;;;;;0.10;0.10;;;;;;;17.68;45.39;97109.75;5047208;28;20573;-71
2023/07/26 11:07:49;;;;;;;0.10;0.10;;;;;;;17.62;45.27;97105.34;5050327;28;20648;-70
2023/07/26 11:10:17;;;;;;;0.10;0.10;;;;;;;17.70;44.01;97096.81;5048060;28;20490;-71
2023/07/26 11:12:45;;;;;;;0.10;0.10;;;;;;;17.74;43.24;97102.53;5048673;28;20127;-72
2023/07/26 11:15:13;;;;;;;0.08;0.08;;;;;;;17.79;43.36;97091.78;5043472;28;20059;-72
2023/07/26 11:18:01;;;;;;;0.10;0.10;;;;;;;17.81;44.01;97095.88;5049111;28;20045;-71
2023/07/26 11:20:30;;;;;;;0.10;0.10;;;;;;;17.93;43.04;97096.53;5051516;28;20037;-72
2023/07/26 11:22:58;;;;;;;0.10;0.10;;;;;;;18.34;43.18;97094.25;5047552;28;20378;-72
2023/07/26 11:25:25;;;;;;;0.10;0.10;;;;;;;18.62;42.22;97098.56;5046636;28;20052;-72
2023/07/26 11:27:54;;;;;;;0.10;0.10;;;;;;;18.45;41.47;97092.47;5045595;28;20055;-71
2023/07/26 11:30:21;;;;;;;0.10;0.10;;;;;;;18.86;39.92;97102.56;5054194;28;20037;-74
2023/07/26 11:32:50;;;;;;;0.15;0.15;;;;;;;18.96;40.23;97086.41;5051116;28;20520;-72
2023/07/26 11:35:20;;;;;;;0.10;0.10;;;;;;;19.14;39.89;97076.22;5048507;28;20045;-71
2023/07/26 11:37:53;;;;;;;0.10;0.10;;;;;;;19.28;40.84;97082.78;5049047;28;20090;-71
2023/07/26 11:40:21;;;;;;;0.10;0.10;;;;;;;19.22;40.81;97087.34;5055202;28;20051;-72